Airport View

Enter AWOS ICAO identifier for current METAR.

ex. KFNL

KNXP 191856Z 12008KT 10SM FEW080 36/03 A2999 RMK AO2 SLP112 T03610028

19 Jun 2019 19:51

Other Area AWOS: KPSP - KL35 - KTRM - KDAG

TAF KNXP 1915/2015 15006KT 9999 SKC QNH2996INS BECMG 2000/2002 24010KT 9999 SKC QNH2992INS T39/1921Z T23/2012Z